Terminal Aerodrome Forecast
Issued by NWS Twin Cities, MN

Home | Current Version | Previous Version | Graphics & Text | Print | Product List | Glossary On
Versions: 1 2 3 4 5 6 7 8 9 10 11 12 13 14 15 16 17
903
FTUS43 KMPX 240809 AAA
TAFSTC
TAF AMD
KSTC 240809Z 2408/2506 00000KT 4SM BR SKC
     FM241500 00000KT P6SM SCT008 BKN015 OVC100
     FM242200 08008KT 1/2SM SN FG OVC007
     FM250300 09005KT 1 1/2SM -SN BR OVC007=

USA.gov is the U.S. government's official web portal to all federal, state and local government web resources and services.